Schedule Details


Flight Number: CTN461
Departure: Zurich (LSZH) at 11:45
Arrival: Franjo Tudman (LDZA) at 13:10
Route: DEGES Z2 UMVEG DCT GOLVA L604 PETOV

Weather Information
LSZH 172350Z AUTO 36005KT 9999 NSC 20/16 Q1015 NOSIG
LDZA 172300Z 00000KT CAVOK 18/15 Q1017 NOSIG
Schedule Frequency

Route Map